Time;durP1;ratioP1;P1;durP2;ratioP2;P2;SDS_P1;SDS_P2;PMS_P1;PMS_P2;Temp;Humidity;BMP_temperature;BMP_pressure;BME280_temperature;BME280_humidity;BME280_pressure;Samples;Min_cycle;Max_cycle;Signal;HPM_P1;HPM_P2
2023/12/15 00:00:24;;;;;;;0.40;0.40;;;;;;;4.75;100.00;102593.66;5110077;28;20111;-44
2023/12/15 00:02:49;;;;;;;0.40;0.40;;;;;;;4.74;100.00;102600.44;5115602;28;20020;-48
2023/12/15 00:05:15;;;;;;;0.30;0.30;;;;;;;4.74;100.00;102594.44;5115643;28;20372;-45
2023/12/15 00:07:40;;;;;;;0.30;0.30;;;;;;;4.73;100.00;102600.31;5115285;28;20085;-46
2023/12/15 00:10:06;;;;;;;0.30;0.30;;;;;;;4.72;100.00;102603.63;5115525;28;20035;-44
2023/12/15 00:12:32;;;;;;;0.30;0.30;;;;;;;4.70;100.00;102607.72;5114999;28;20038;-45
2023/12/15 00:14:57;;;;;;;0.30;0.30;;;;;;;4.69;100.00;102613.63;5115808;28;20110;-44
2023/12/15 00:17:22;;;;;;;0.40;0.40;;;;;;;4.69;100.00;102621.28;5115373;28;20032;-44
2023/12/15 00:19:48;;;;;;;0.32;0.32;;;;;;;4.68;100.00;102624.59;5115015;28;20020;-44
2023/12/15 00:22:13;;;;;;;0.30;0.30;;;;;;;4.68;100.00;102627.16;5115076;28;20120;-44
2023/12/15 00:24:38;;;;;;;0.40;0.40;;;;;;;4.68;100.00;102622.03;5115578;28;20023;-44
2023/12/15 00:27:04;;;;;;;0.30;0.30;;;;;;;4.67;100.00;102620.25;5114915;28;20019;-43
2023/12/15 00:29:29;;;;;;;0.30;0.30;;;;;;;4.66;100.00;102624.47;5114924;28;20032;-45
2023/12/15 00:31:54;;;;;;;0.30;0.30;;;;;;;4.67;100.00;102617.69;5115450;28;20015;-45
2023/12/15 00:34:20;;;;;;;0.30;0.30;;;;;;;4.65;100.00;102619.22;5114478;28;20028;-44
2023/12/15 00:36:45;;;;;;;0.30;0.30;;;;;;;4.66;100.00;102623.56;5115048;28;20172;-47
2023/12/15 00:39:10;;;;;;;0.30;0.30;;;;;;;4.67;100.00;102620.25;5114994;28;20042;-44
2023/12/15 00:41:35;;;;;;;0.30;0.30;;;;;;;4.68;100.00;102622.03;5114510;28;20027;-44
2023/12/15 00:44:04;;;;;;;0.30;0.30;;;;;;;4.68;100.00;102632.25;5115075;28;20025;-45
2023/12/15 00:46:29;;;;;;;0.30;0.30;;;;;;;4.69;100.00;102628.94;5114795;28;20024;-45
2023/12/15 00:48:55;;;;;;;0.30;0.30;;;;;;;4.70;100.00;102630.69;5114623;28;20399;-46
2023/12/15 00:51:20;;;;;;;0.40;0.40;;;;;;;4.71;100.00;102632.50;5114621;28;20378;-44
2023/12/15 00:53:45;;;;;;;0.38;0.38;;;;;;;4.71;100.00;102627.38;5114984;28;20027;-44
2023/12/15 00:56:10;;;;;;;0.40;0.40;;;;;;;4.73;100.00;102628.41;5114059;28;20024;-44
2023/12/15 00:58:36;;;;;;;0.30;0.30;;;;;;;4.73;100.00;102639.50;5114985;28;20073;-44
2023/12/15 01:01:01;;;;;;;0.40;0.40;;;;;;;4.74;100.00;102642.97;5115006;28;20047;-44
2023/12/15 01:03:29;;;;;;;0.40;0.40;;;;;;;4.75;100.00;102654.97;5114106;28;20403;-44
2023/12/15 01:05:55;;;;;;;0.30;0.30;;;;;;;4.76;100.00;102651.66;5114518;28;20034;-44
2023/12/15 01:08:20;;;;;;;0.30;0.30;;;;;;;4.76;100.00;102646.53;5114253;28;20433;-46
2023/12/15 01:10:45;;;;;;;0.40;0.40;;;;;;;4.78;100.00;102650.13;5113786;28;20487;-44
2023/12/15 01:13:11;;;;;;;0.40;0.40;;;;;;;4.79;100.00;102651.91;5114256;28;20028;-44
2023/12/15 01:15:36;;;;;;;0.40;0.40;;;;;;;4.80;100.00;102658.78;5114688;28;20493;-45
2023/12/15 01:18:01;;;;;;;0.30;0.30;;;;;;;4.81;100.00;102660.56;5114143;28;20027;-45
2023/12/15 01:20:26;;;;;;;0.30;0.30;;;;;;;4.84;100.00;102658.28;5113772;28;20539;-44
2023/12/15 01:22:52;;;;;;;0.30;0.30;;;;;;;4.85;100.00;102654.94;5113847;28;20028;-46
2023/12/15 01:25:17;;;;;;;0.30;0.30;;;;;;;4.87;100.00;102665.31;5113882;28;20450;-43
2023/12/15 01:27:42;;;;;;;0.20;0.20;;;;;;;4.86;100.00;102669.50;5114191;28;20038;-46
2023/12/15 01:30:08;;;;;;;0.20;0.20;;;;;;;4.87;100.00;102670.44;5113839;28;20497;-44
2023/12/15 01:32:33;;;;;;;0.40;0.40;;;;;;;4.86;100.00;102674.63;5113442;28;20031;-44
2023/12/15 01:34:58;;;;;;;0.30;0.30;;;;;;;4.87;100.00;102676.41;5114286;28;20106;-44
2023/12/15 01:37:24;;;;;;;0.30;0.30;;;;;;;4.89;100.00;102685.13;5113392;28;20028;-44
2023/12/15 01:39:50;;;;;;;0.40;0.40;;;;;;;4.88;100.00;102688.44;5113723;28;20027;-43
2023/12/15 01:42:15;;;;;;;0.35;0.35;;;;;;;4.88;100.00;102683.31;5113842;28;20043;-43
2023/12/15 01:44:41;;;;;;;0.40;0.40;;;;;;;4.90;100.00;102686.88;5113525;28;20379;-45
2023/12/15 01:47:09;;;;;;;0.20;0.20;;;;;;;4.91;100.00;102687.78;5113910;28;20022;-44
2023/12/15 01:49:34;;;;;;;0.30;0.30;;;;;;;4.91;100.00;102683.56;5113572;28;20368;-45
2023/12/15 01:52:00;;;;;;;0.40;0.40;;;;;;;4.92;100.00;102681.91;5113260;28;20148;-45
2023/12/15 01:54:25;;;;;;;0.30;0.30;;;;;;;4.94;100.00;102685.47;5112597;28;20019;-46
2023/12/15 01:56:51;;;;;;;0.40;0.40;;;;;;;4.94;100.00;102693.13;5113978;28;20122;-44
2023/12/15 01:59:17;;;;;;;0.32;0.32;;;;;;;4.95;100.00;102697.50;5113079;28;20107;-46
2023/12/15 02:01:42;;;;;;;0.40;0.40;;;;;;;4.95;100.00;102693.25;5113342;28;20068;-46
2023/12/15 02:04:07;;;;;;;0.40;0.40;;;;;;;4.94;100.00;102699.16;5113327;28;20051;-44
2023/12/15 02:06:33;;;;;;;0.30;0.30;;;;;;;4.95;100.00;102711.16;5112725;28;20028;-44
2023/12/15 02:08:58;;;;;;;0.40;0.40;;;;;;;4.96;100.00;102706.94;5113148;28;20023;-46
2023/12/15 02:11:23;;;;;;;0.30;0.30;;;;;;;4.98;100.00;102709.63;5112883;28;20041;-45
2023/12/15 02:13:49;;;;;;;0.30;0.30;;;;;;;4.99;100.00;102711.41;5112880;28;20023;-44
2023/12/15 02:16:14;;;;;;;0.30;0.30;;;;;;;4.98;100.00;102701.97;5113228;28;20024;-44
2023/12/15 02:18:39;;;;;;;0.40;0.40;;;;;;;4.98;100.00;102701.97;5113379;28;20444;-44
2023/12/15 02:21:05;;;;;;;0.40;0.40;;;;;;;4.99;100.00;102714.84;5112942;28;20041;-47
2023/12/15 02:23:30;;;;;;;0.40;0.40;;;;;;;5.00;100.00;102715.78;5112754;28;20020;-48
2023/12/15 02:25:55;;;;;;;0.40;0.40;;;;;;;5.01;100.00;102712.41;5113539;28;20023;-47
2023/12/15 02:28:20;;;;;;;0.30;0.30;;;;;;;5.00;100.00;102714.09;5112583;28;20391;-47
2023/12/15 02:30:46;;;;;;;0.40;0.40;;;;;;;5.02;100.00;102727.00;5113139;28;20076;-47
2023/12/15 02:33:11;;;;;;;0.32;0.32;;;;;;;5.02;100.00;102730.47;5112407;28;20035;-44
2023/12/15 02:35:38;;;;;;;0.40;0.40;;;;;;;5.02;100.00;102733.00;5113067;28;20020;-48
2023/12/15 02:38:07;;;;;;;0.40;0.40;;;;;;;5.05;100.00;102737.50;5113173;28;20023;-45
2023/12/15 02:40:34;;;;;;;0.30;0.30;;;;;;;5.04;100.00;102735.69;5112328;28;20633;-44
2023/12/15 02:42:59;;;;;;;0.40;0.40;;;;;;;5.04;100.00;102739.13;5113026;28;20034;-44
2023/12/15 02:45:25;;;;;;;0.30;0.30;;;;;;;5.06;100.00;102734.13;5112792;28;20023;-45
2023/12/15 02:47:50;;;;;;;0.30;0.30;;;;;;;5.07;100.00;102741.03;5112674;28;20031;-43
2023/12/15 02:50:15;;;;;;;0.40;0.40;;;;;;;5.07;100.00;102747.06;5112390;28;20057;-47
2023/12/15 02:52:40;;;;;;;0.35;0.35;;;;;;;5.07;100.00;102747.06;5112964;28;20036;-44
2023/12/15 02:55:06;;;;;;;0.30;0.30;;;;;;;5.09;100.00;102753.19;5112768;28;20027;-43
2023/12/15 02:57:32;;;;;;;0.30;0.30;;;;;;;5.10;100.00;102760.09;5112734;28;20103;-44
2023/12/15 02:59:57;;;;;;;0.40;0.40;;;;;;;5.11;100.00;102768.63;5113130;28;20540;-45
2023/12/15 03:02:22;;;;;;;0.30;0.30;;;;;;;5.14;100.00;102773.09;5111987;28;20020;-44
2023/12/15 03:04:48;;;;;;;0.30;0.30;;;;;;;5.14;100.00;102774.03;5112745;28;20040;-44
2023/12/15 03:07:13;;;;;;;0.40;0.40;;;;;;;5.16;100.00;102776.69;5114824;28;20020;-44
2023/12/15 03:09:38;;;;;;;0.40;0.40;;;;;;;5.16;100.00;102777.56;5116343;28;20031;-45
2023/12/15 03:12:04;;;;;;;0.30;0.30;;;;;;;5.17;100.00;102778.50;5116984;28;20106;-43
2023/12/15 03:14:29;;;;;;;0.30;0.30;;;;;;;5.17;100.00;102774.25;5116575;28;20055;-45
2023/12/15 03:16:54;;;;;;;0.30;0.30;;;;;;;5.19;100.00;102770.19;5116453;28;20026;-44
2023/12/15 03:19:19;;;;;;;0.40;0.40;;;;;;;5.19;100.00;102777.84;5116172;28;20463;-44
2023/12/15 03:21:45;;;;;;;0.40;0.40;;;;;;;5.20;100.00;102782.19;5116741;28;20027;-47
2023/12/15 03:24:10;;;;;;;0.22;0.22;;;;;;;5.20;100.00;102792.44;5115772;28;20390;-45
2023/12/15 03:26:35;;;;;;;0.30;0.30;;;;;;;5.22;100.00;102798.53;5116648;28;20047;-44
2023/12/15 03:29:00;;;;;;;0.30;0.30;;;;;;;5.23;100.00;102797.78;5116816;28;20355;-44
2023/12/15 03:31:26;;;;;;;0.20;0.20;;;;;;;5.23;100.00;102802.91;5115875;28;20032;-44
2023/12/15 03:33:51;;;;;;;0.40;0.40;;;;;;;5.25;100.00;102805.56;5116271;28;20050;-44
2023/12/15 03:36:16;;;;;;;0.30;0.30;;;;;;;5.25;100.00;102813.25;5116226;28;20024;-44
2023/12/15 03:38:42;;;;;;;0.28;0.28;;;;;;;5.25;100.00;102814.16;5115734;28;20035;-45
2023/12/15 03:41:07;;;;;;;0.30;0.30;;;;;;;5.26;100.00;102815.91;5116571;28;20413;-44
2023/12/15 03:43:32;;;;;;;0.30;0.30;;;;;;;5.27;100.00;102820.28;5115512;28;20066;-43
2023/12/15 03:45:57;;;;;;;0.30;0.30;;;;;;;5.28;100.00;102814.41;5116105;28;20024;-45
2023/12/15 03:48:23;;;;;;;0.30;0.30;;;;;;;5.30;100.00;102821.31;5115849;28;20031;-44
2023/12/15 03:50:48;;;;;;;0.30;0.30;;;;;;;5.30;100.00;102819.63;5115755;28;20049;-44
2023/12/15 03:53:14;;;;;;;0.28;0.28;;;;;;;5.32;100.00;102829.97;5115677;28;20024;-44
2023/12/15 03:55:39;;;;;;;0.40;0.40;;;;;;;5.32;100.00;102827.41;5116085;28;20526;-47
2023/12/15 03:58:04;;;;;;;0.30;0.30;;;;;;;5.32;100.00;102824.88;5115768;28;20076;-45
2023/12/15 04:00:29;;;;;;;0.30;0.30;;;;;;;5.33;100.00;102832.66;5115709;28;20043;-44
2023/12/15 04:02:55;;;;;;;0.30;0.30;;;;;;;5.34;100.00;102831.91;5116116;28;20022;-44
2023/12/15 04:05:21;;;;;;;0.40;0.40;;;;;;;5.35;100.00;102831.13;5115363;28;20019;-43
2023/12/15 04:07:46;;;;;;;0.30;0.30;;;;;;;5.37;100.00;102844.03;5115476;28;20500;-45
2023/12/15 04:10:12;;;;;;;0.30;0.30;;;;;;;5.37;100.00;102849.16;5115769;28;20117;-44
2023/12/15 04:12:37;;;;;;;0.38;0.38;;;;;;;5.39;100.00;102842.53;5115229;28;20100;-44
2023/12/15 04:15:03;;;;;;;0.38;0.38;;;;;;;5.40;100.00;102849.44;5115663;28;20023;-43
2023/12/15 04:17:29;;;;;;;0.40;0.40;;;;;;;5.40;100.00;102839.19;5114965;28;20031;-45
2023/12/15 04:19:54;;;;;;;0.30;0.30;;;;;;;5.41;100.00;102839.31;5115019;28;20030;-44
2023/12/15 04:22:22;;;;;;;0.30;0.30;;;;;;;5.43;100.00;102852.22;5115074;28;20106;-44
2023/12/15 04:24:47;;;;;;;0.40;0.40;;;;;;;5.43;100.00;102850.56;5115805;28;20023;-45
2023/12/15 04:27:12;;;;;;;0.30;0.30;;;;;;;5.43;100.00;102849.66;5114603;28;20034;-44
2023/12/15 04:29:37;;;;;;;0.40;0.40;;;;;;;5.44;100.00;102852.34;5115196;28;20110;-47
2023/12/15 04:32:03;;;;;;;0.20;0.20;;;;;;;5.45;100.00;102863.50;5115161;28;20028;-45
2023/12/15 04:34:29;;;;;;;0.25;0.25;;;;;;;5.45;100.00;102863.50;5114574;28;20123;-45
2023/12/15 04:36:54;;;;;;;0.25;0.25;;;;;;;5.46;100.00;102870.38;5114921;28;20367;-43
2023/12/15 04:39:19;;;;;;;0.25;0.25;;;;;;;5.49;100.00;102879.97;5114901;28;20065;-44
2023/12/15 04:41:44;;;;;;;0.40;0.40;;;;;;;5.50;100.00;102871.53;5114658;28;20386;-44
2023/12/15 04:44:10;;;;;;;0.30;0.30;;;;;;;5.50;100.00;102871.53;5114890;28;20051;-44
2023/12/15 04:46:36;;;;;;;0.40;0.40;;;;;;;5.51;100.00;102871.66;5114987;28;20023;-44
2023/12/15 04:49:02;;;;;;;0.30;0.30;;;;;;;5.51;100.00;102866.53;5114452;28;20046;-44
2023/12/15 04:51:27;;;;;;;0.30;0.30;;;;;;;5.54;100.00;102874.47;5114769;28;20027;-44
2023/12/15 04:53:53;;;;;;;0.32;0.32;;;;;;;5.53;100.00;102876.91;5114752;28;20363;-44
2023/12/15 04:56:18;;;;;;;0.40;0.40;;;;;;;5.53;100.00;102885.47;5114706;28;20471;-44
2023/12/15 04:58:44;;;;;;;0.30;0.30;;;;;;;5.54;100.00;102900.06;5115037;28;20023;-44
2023/12/15 05:01:13;;;;;;;0.40;0.40;;;;;;;5.53;100.00;102895.69;5114346;28;20535;-44
2023/12/15 05:03:41;;;;;;;0.38;0.38;;;;;;;5.53;100.00;102888.03;5114665;28;20019;-44
2023/12/15 05:06:19;;;;;;;0.30;0.30;;;;;;;5.54;100.00;102884.72;5114668;28;20459;-45
2023/12/15 05:08:45;;;;;;;0.30;0.30;;;;;;;5.54;100.00;102883.78;5114195;28;20024;-44
2023/12/15 05:11:11;;;;;;;0.32;0.32;;;;;;;5.54;100.00;102886.34;5114132;28;20035;-44
2023/12/15 05:13:36;;;;;;;0.30;0.30;;;;;;;5.54;100.00;102889.81;5114722;28;20020;-44
2023/12/15 05:16:02;;;;;;;0.38;0.38;;;;;;;5.56;100.00;102892.50;5114127;28;20031;-44
2023/12/15 05:18:27;;;;;;;0.22;0.22;;;;;;;5.56;100.00;102888.28;5114019;28;20028;-47
2023/12/15 05:20:52;;;;;;;0.30;0.30;;;;;;;5.57;100.00;102895.19;5114356;28;20027;-44
2023/12/15 05:23:18;;;;;;;0.40;0.40;;;;;;;5.57;100.00;102902.84;5113727;28;20024;-45
2023/12/15 05:25:43;;;;;;;0.40;0.40;;;;;;;5.58;100.00;102902.09;5114318;28;20028;-44
2023/12/15 05:28:08;;;;;;;0.30;0.30;;;;;;;5.58;100.00;102909.78;5114081;28;20455;-44
2023/12/15 05:30:34;;;;;;;0.40;0.40;;;;;;;5.58;100.00;102912.31;5112654;28;20115;-44
2023/12/15 05:32:59;;;;;;;0.40;0.40;;;;;;;5.59;100.00;102918.31;5114056;28;20020;-44
2023/12/15 05:35:24;;;;;;;0.30;0.30;;;;;;;5.60;100.00;102925.25;5113702;28;20024;-44
2023/12/15 05:37:50;;;;;;;0.30;0.30;;;;;;;5.60;100.00;102921.03;5113867;28;20424;-44
2023/12/15 05:40:15;;;;;;;0.28;0.28;;;;;;;5.61;100.00;102933.03;5113611;28;20082;-44
2023/12/15 05:42:41;;;;;;;0.32;0.32;;;;;;;5.63;100.00;102942.50;5114148;28;20077;-48
2023/12/15 05:45:08;;;;;;;0.40;0.40;;;;;;;5.65;100.00;102944.41;5113226;28;20024;-44
2023/12/15 05:47:35;;;;;;;0.30;0.30;;;;;;;5.66;100.00;102945.34;5113672;28;20035;-44
2023/12/15 05:50:00;;;;;;;0.40;0.40;;;;;;;5.69;100.00;102948.13;5113188;28;20056;-45
2023/12/15 05:52:26;;;;;;;0.30;0.30;;;;;;;5.70;100.00;102957.63;5113614;28;20024;-44
2023/12/15 05:54:51;;;;;;;0.30;0.30;;;;;;;5.70;100.00;102953.38;5113981;28;20479;-45
2023/12/15 05:57:16;;;;;;;0.22;0.22;;;;;;;5.72;100.00;102958.63;5112889;28;20092;-44
2023/12/15 05:59:41;;;;;;;0.40;0.40;;;;;;;5.72;100.00;102954.41;5113611;28;20039;-44
2023/12/15 06:02:07;;;;;;;0.30;0.30;;;;;;;5.73;100.00;102961.31;5113718;28;20029;-44
2023/12/15 06:04:32;;;;;;;0.38;0.38;;;;;;;5.75;100.00;102957.22;5112617;28;20032;-44
2023/12/15 06:06:58;;;;;;;0.30;0.30;;;;;;;5.76;100.00;102955.56;5113668;28;20019;-44
2023/12/15 06:09:23;;;;;;;0.40;0.40;;;;;;;5.78;100.00;102951.47;5113520;28;20382;-44
2023/12/15 06:11:49;;;;;;;0.30;0.30;;;;;;;5.79;100.00;102955.81;5112975;28;20387;-44
2023/12/15 06:14:14;;;;;;;0.32;0.32;;;;;;;5.79;100.00;102953.25;5112942;28;20444;-44
2023/12/15 06:16:39;;;;;;;0.40;0.40;;;;;;;5.79;100.00;102958.38;5113410;28;20378;-44
2023/12/15 06:19:05;;;;;;;0.40;0.40;;;;;;;5.80;100.00;102960.16;5112926;28;20030;-45
2023/12/15 06:21:30;;;;;;;0.30;0.30;;;;;;;5.80;100.00;102964.38;5113156;28;20472;-47
2023/12/15 06:23:56;;;;;;;0.30;0.30;;;;;;;5.80;100.00;102962.72;5113448;28;20027;-45
2023/12/15 06:26:23;;;;;;;0.40;0.40;;;;;;;5.81;100.00;102956.84;5112668;28;20031;-44
2023/12/15 06:28:49;;;;;;;0.30;0.30;;;;;;;5.82;100.00;102971.41;5112979;28;20054;-44
2023/12/15 06:31:15;;;;;;;0.40;0.40;;;;;;;5.82;100.00;102976.53;5112973;28;20051;-45
2023/12/15 06:33:40;;;;;;;0.40;0.40;;;;;;;5.81;100.00;102972.19;5112547;28;20032;-45
2023/12/15 06:36:07;;;;;;;0.30;0.30;;;;;;;5.82;100.00;102988.44;5113101;28;20032;-45
2023/12/15 06:38:33;;;;;;;0.40;0.40;;;;;;;5.82;100.00;102986.75;5113172;28;20071;-44
2023/12/15 06:40:58;;;;;;;0.30;0.30;;;;;;;5.84;100.00;102986.91;5112431;28;20058;-44
2023/12/15 06:43:24;;;;;;;0.30;0.30;;;;;;;5.85;100.00;102992.16;5112665;28;20016;-44
2023/12/15 06:45:49;;;;;;;0.40;0.40;;;;;;;5.84;100.00;102982.69;5112993;28;20023;-45
2023/12/15 06:48:14;;;;;;;0.30;0.30;;;;;;;5.85;100.00;102989.59;5111865;28;20024;-45
2023/12/15 06:50:39;;;;;;;0.40;0.40;;;;;;;5.87;100.00;102993.16;5112785;28;20034;-46
2023/12/15 06:53:05;;;;;;;0.30;0.30;;;;;;;5.87;100.00;102993.16;5113238;28;20028;-44
2023/12/15 06:55:30;;;;;;;0.30;0.30;;;;;;;5.88;100.00;102994.06;5112063;28;20019;-44
2023/12/15 06:57:55;;;;;;;0.30;0.30;;;;;;;5.91;100.00;103000.34;5113156;28;20028;-46
2023/12/15 07:00:21;;;;;;;0.30;0.30;;;;;;;5.91;100.00;103004.56;5112219;28;20119;-44
2023/12/15 07:02:46;;;;;;;0.30;0.30;;;;;;;5.90;100.00;103002.75;5112776;28;20023;-44
2023/12/15 07:05:11;;;;;;;0.32;0.32;;;;;;;5.90;100.00;103003.66;5112849;28;20127;-45
2023/12/15 07:07:37;;;;;;;0.30;0.30;;;;;;;5.92;100.00;103017.47;5112519;28;20019;-45
2023/12/15 07:10:03;;;;;;;0.35;0.35;;;;;;;5.93;100.00;103026.94;5112763;28;20059;-45
2023/12/15 07:12:28;;;;;;;0.40;0.40;;;;;;;5.93;100.00;103037.19;5112413;28;20031;-44
2023/12/15 07:14:54;;;;;;;0.30;0.30;;;;;;;5.96;100.00;103035.66;5112514;28;20027;-45
2023/12/15 07:17:19;;;;;;;0.30;0.30;;;;;;;5.95;100.00;103029.63;5112374;28;20042;-44
2023/12/15 07:19:44;;;;;;;0.30;0.30;;;;;;;5.97;100.00;103035.78;5112876;28;20084;-46
2023/12/15 07:22:09;;;;;;;0.30;0.30;;;;;;;5.98;100.00;103046.91;5111986;28;20375;-44
2023/12/15 07:24:35;;;;;;;0.40;0.40;;;;;;;5.97;100.00;103040.03;5112193;28;20024;-48
2023/12/15 07:27:00;;;;;;;0.30;0.30;;;;;;;5.97;100.00;103040.03;5112753;28;20383;-49
2023/12/15 07:29:25;;;;;;;0.40;0.40;;;;;;;5.94;100.00;103049.22;5111897;28;20015;-49
2023/12/15 07:31:51;;;;;;;0.30;0.30;;;;;;;5.94;100.00;103049.22;5112358;28;20034;-49
2023/12/15 07:34:17;;;;;;;0.40;0.40;;;;;;;5.97;100.00;103050.25;5112164;28;20172;-50
2023/12/15 07:36:42;;;;;;;0.30;0.30;;;;;;;5.98;100.00;103052.03;5111867;28;20502;-48
2023/12/15 07:39:08;;;;;;;0.40;0.40;;;;;;;5.99;100.00;103047.09;5112128;28;20020;-48
2023/12/15 07:41:37;;;;;;;0.30;0.30;;;;;;;5.98;100.00;103064.81;5112134;28;20020;-50
2023/12/15 07:44:02;;;;;;;0.30;0.30;;;;;;;5.98;100.00;103077.63;5112028;28;20047;-45
2023/12/15 07:46:28;;;;;;;0.30;0.30;;;;;;;5.98;100.00;103067.38;5112041;28;20476;-45
2023/12/15 07:48:53;;;;;;;0.30;0.30;;;;;;;6.00;100.00;103065.91;5112608;28;20097;-45
2023/12/15 07:51:20;;;;;;;0.32;0.32;;;;;;;5.99;100.00;103064.09;5111612;28;20493;-44
2023/12/15 07:53:47;;;;;;;0.40;0.40;;;;;;;6.00;100.00;103077.03;5115682;28;20413;-49
2023/12/15 07:56:38;;;;;;;0.30;0.30;;;;;;;6.06;100.00;103081.78;5116029;28;20020;-47
2023/12/15 07:59:04;;;;;;;0.30;0.30;;;;;;;6.02;100.00;103079.72;5110787;28;20437;-46
2023/12/15 08:01:29;;;;;;;0.30;0.30;;;;;;;6.03;100.00;103081.50;5116010;28;20024;-45
2023/12/15 08:03:54;;;;;;;0.30;0.30;;;;;;;6.05;100.00;103085.09;5115711;28;20028;-46
2023/12/15 08:06:19;;;;;;;0.30;0.30;;;;;;;6.04;100.00;103091.91;5115613;28;20463;-47
2023/12/15 08:08:47;;;;;;;0.40;0.40;;;;;;;6.06;100.00;103097.13;5102871;28;20091;-45
2023/12/15 08:11:16;;;;;;;0.30;0.30;;;;;;;6.07;100.00;103093.81;5093869;28;20024;-48
2023/12/15 08:13:41;;;;;;;0.40;0.40;;;;;;;6.08;100.00;103093.03;5093800;28;20035;-48
2023/12/15 08:16:07;;;;;;;0.30;0.30;;;;;;;6.09;100.00;103108.53;5094947;28;20111;-47
2023/12/15 08:18:33;;;;;;;0.30;0.30;;;;;;;6.09;100.00;103113.66;5094212;28;20024;-50
2023/12/15 08:21:00;;;;;;;0.30;0.30;;;;;;;6.10;100.00;103114.53;5095062;28;20349;-49
2023/12/15 08:23:25;;;;;;;0.20;0.20;;;;;;;6.12;100.00;103128.38;5095092;28;20016;-48
2023/12/15 08:25:51;;;;;;;0.22;0.22;;;;;;;6.13;100.00;103130.16;5094801;28;20027;-47
2023/12/15 08:28:18;;;;;;;0.30;0.30;;;;;;;6.14;100.00;103125.94;5094532;28;20090;-47
2023/12/15 08:30:44;;;;;;;0.30;0.30;;;;;;;6.15;100.00;103136.31;5095199;28;20028;-47
2023/12/15 08:33:09;;;;;;;0.40;0.40;;;;;;;6.16;100.00;103139.75;5094279;28;20384;-45
2023/12/15 08:35:34;;;;;;;0.25;0.25;;;;;;;6.17;100.00;103150.16;5094839;28;20472;-50
2023/12/15 08:38:00;;;;;;;0.40;0.40;;;;;;;6.17;100.00;103150.16;5094364;28;20107;-48
2023/12/15 08:40:25;;;;;;;0.40;0.40;;;;;;;6.19;100.00;103156.28;5093742;28;20028;-47
2023/12/15 08:42:51;;;;;;;0.25;0.25;;;;;;;6.20;100.00;103155.53;5094630;28;20032;-47
2023/12/15 08:45:17;;;;;;;0.28;0.28;;;;;;;6.20;100.00;103168.31;5094232;28;20042;-44
2023/12/15 08:47:42;;;;;;;0.30;0.30;;;;;;;6.22;100.00;103166.81;5094179;28;20024;-44
2023/12/15 08:50:08;;;;;;;0.30;0.30;;;;;;;6.26;100.00;103173.97;5094600;28;20052;-44
2023/12/15 08:52:33;;;;;;;0.40;0.40;;;;;;;6.31;100.00;103181.13;5094483;28;20063;-48
2023/12/15 08:54:59;;;;;;;0.30;0.30;;;;;;;6.34;100.00;103186.50;5093952;28;20375;-45
2023/12/15 08:57:24;;;;;;;0.30;0.30;;;;;;;6.37;100.00;103182.56;5094359;28;20027;-44
2023/12/15 08:59:49;;;;;;;0.32;0.32;;;;;;;6.40;100.00;103192.16;5094596;28;20031;-48
2023/12/15 09:02:15;;;;;;;0.30;0.30;;;;;;;6.44;100.00;103186.53;5093937;28;20050;-44
2023/12/15 09:04:40;;;;;;;0.30;0.30;;;;;;;6.47;100.00;103194.47;5093298;28;20028;-45
2023/12/15 09:07:08;;;;;;;0.40;0.40;;;;;;;6.49;100.00;103192.03;5094191;28;20027;-47
2023/12/15 09:09:35;;;;;;;0.28;0.28;;;;;;;6.52;100.00;103188.06;5093936;28;20052;-44
2023/12/15 09:12:01;;;;;;;0.30;0.30;;;;;;;6.52;100.00;103188.06;5094489;28;20028;-48
2023/12/15 09:14:27;;;;;;;0.30;0.30;;;;;;;6.55;100.00;103190.00;5093657;28;20020;-44
2023/12/15 09:16:54;;;;;;;0.30;0.30;;;;;;;6.54;100.00;103183.97;5094618;28;20084;-44
2023/12/15 09:19:19;;;;;;;0.30;0.30;;;;;;;6.57;100.00;103196.13;5094104;28;20028;-46
2023/12/15 09:21:44;;;;;;;0.30;0.30;;;;;;;6.61;100.00;103203.34;5093531;28;20035;-44
2023/12/15 09:24:10;;;;;;;0.20;0.20;;;;;;;6.61;100.00;103215.22;5093585;28;20024;-45
2023/12/15 09:26:38;;;;;;;0.40;0.40;;;;;;;6.66;100.00;103224.19;5093968;28;20020;-49
2023/12/15 09:29:03;;;;;;;0.30;0.30;;;;;;;6.67;100.00;103221.75;5093523;28;20364;-47
2023/12/15 09:31:28;;;;;;;0.30;0.30;;;;;;;6.69;100.00;103225.34;5093576;28;20577;-44
2023/12/15 09:33:54;;;;;;;0.30;0.30;;;;;;;6.68;100.00;103231.25;5094076;28;20024;-48
2023/12/15 09:36:19;;;;;;;0.30;0.30;;;;;;;6.68;100.00;103233.81;5092989;28;20020;-43
2023/12/15 09:38:44;;;;;;;0.30;0.30;;;;;;;6.69;100.00;103237.28;5093717;28;20030;-48
2023/12/15 09:41:10;;;;;;;0.30;0.30;;;;;;;6.73;100.00;103247.03;5093464;28;20020;-44
2023/12/15 09:43:35;;;;;;;0.40;0.40;;;;;;;6.75;100.00;103258.28;5092979;28;20020;-49
2023/12/15 09:46:01;;;;;;;0.30;0.30;;;;;;;6.73;100.00;103260.72;5093993;28;20027;-48
2023/12/15 09:48:29;;;;;;;0.30;0.30;;;;;;;6.75;100.00;103264.31;5093361;28;20102;-48
2023/12/15 09:50:56;;;;;;;0.30;0.30;;;;;;;6.75;100.00;103276.22;5092975;28;20024;-44
2023/12/15 09:53:22;;;;;;;0.30;0.30;;;;;;;6.76;100.00;103280.59;5093321;28;20035;-48
2023/12/15 09:55:48;;;;;;;0.30;0.30;;;;;;;6.77;100.00;103289.19;5093466;28;20019;-45
2023/12/15 09:58:13;;;;;;;0.20;0.20;;;;;;;6.77;100.00;103297.75;5092680;28;20028;-46
2023/12/15 10:00:39;;;;;;;0.38;0.38;;;;;;;6.78;100.00;103289.31;5093611;28;20024;-44
2023/12/15 10:03:04;;;;;;;0.20;0.20;;;;;;;6.82;100.00;103288.81;5093592;28;20039;-44
2023/12/15 10:05:30;;;;;;;0.30;0.30;;;;;;;6.84;100.00;103294.97;5092439;28;20508;-46
2023/12/15 10:07:55;;;;;;;0.30;0.30;;;;;;;6.84;100.00;103297.53;5093331;28;20043;-48
2023/12/15 10:10:23;;;;;;;0.30;0.30;;;;;;;6.87;100.00;103297.78;5092309;28;20032;-47
2023/12/15 10:12:48;;;;;;;0.20;0.20;;;;;;;6.88;100.00;103304.69;5093520;28;20024;-47
2023/12/15 10:15:14;;;;;;;0.30;0.30;;;;;;;6.87;100.00;103308.03;5092769;28;20027;-47
2023/12/15 10:17:40;;;;;;;0.30;0.30;;;;;;;6.87;100.00;103300.34;5092839;28;20115;-44
2023/12/15 10:20:10;;;;;;;0.22;0.22;;;;;;;6.87;100.00;103309.72;5092900;28;20027;-48
2023/12/15 10:22:38;;;;;;;0.22;0.22;;;;;;;6.87;100.00;103310.59;5093128;28;20038;-47
2023/12/15 10:25:23;;;;;;;0.20;0.20;;;;;;;6.96;100.00;103325.84;5092415;28;20535;-44
2023/12/15 10:27:49;;;;;;;0.30;0.30;;;;;;;6.97;100.00;103329.31;5093070;28;20020;-44
2023/12/15 10:30:16;;;;;;;0.30;0.30;;;;;;;7.03;100.00;103329.81;5092554;28;20028;-45
2023/12/15 10:32:42;;;;;;;0.40;0.40;;;;;;;7.08;100.00;103331.13;5092400;28;20127;-44
2023/12/15 10:35:09;;;;;;;0.25;0.25;;;;;;;7.06;100.00;103336.13;5092727;28;20028;-46
2023/12/15 10:37:35;;;;;;;0.20;0.20;;;;;;;7.09;100.00;103348.31;5093105;28;20043;-44
2023/12/15 10:40:02;;;;;;;0.30;0.30;;;;;;;7.08;100.00;103351.63;5092362;28;20074;-48
2023/12/15 10:42:29;;;;;;;0.30;0.30;;;;;;;7.08;100.00;103351.63;5092797;28;20031;-48
2023/12/15 10:44:57;;;;;;;0.30;0.30;;;;;;;7.07;100.00;103349.81;5092993;28;20024;-50
2023/12/15 10:47:24;;;;;;;0.30;0.30;;;;;;;7.08;100.00;103354.19;5091946;28;20024;-49
2023/12/15 10:49:52;;;;;;;0.30;0.30;;;;;;;7.07;100.00;103360.09;5092509;28;20044;-49
2023/12/15 10:52:21;;;;;;;0.32;0.32;;;;;;;7.08;100.00;103354.19;5092687;28;20021;-48
2023/12/15 10:54:48;;;;;;;0.30;0.30;;;;;;;7.10;100.00;103368.03;5092297;28;20127;-46
2023/12/15 10:57:13;;;;;;;0.25;0.25;;;;;;;7.10;100.00;103370.59;5092526;28;20495;-46
2023/12/15 10:59:39;;;;;;;0.30;0.30;;;;;;;7.15;100.00;103379.56;5092438;28;20036;-49
2023/12/15 11:02:08;;;;;;;0.30;0.30;;;;;;;7.18;100.00;103378.94;5092446;28;20378;-49
2023/12/15 11:04:34;;;;;;;0.30;0.30;;;;;;;7.22;100.00;103388.69;5092301;28;20562;-45
2023/12/15 11:06:59;;;;;;;0.30;0.30;;;;;;;7.22;100.00;103392.16;5092342;28;20032;-48
2023/12/15 11:09:33;;;;;;;0.30;0.30;;;;;;;7.21;100.00;103397.16;5092091;28;20030;-47
2023/12/15 11:12:22;;;;;;;0.20;0.20;;;;;;;7.24;100.00;103405.09;5092960;28;20082;-45
2023/12/15 11:14:57;;;;;;;0.30;0.30;;;;;;;7.20;100.00;103398.81;5091731;28;20548;-48
2023/12/15 11:17:22;;;;;;;0.30;0.30;;;;;;;7.22;100.00;103402.41;5092458;28;20024;-49